Terminal Aerodrome Forecast
Issued by NWS

Home | Current Version | Previous Version | Text Only | Print | Product List | Glossary On
Versions: 1 2 3 4 5 6 7 8 9 10 11 12 13
000
FTUS41 KALY 292347
TAFPSF
TAF
KPSF 292347Z 3000/3024 VRB03KT P6SM OVC015
     FM300600 00000KT 4SM BR OVC007
      TEMPO 3007/3010 2SM BR OVC003
     FM301100 15004KT P6SM SCT007 OVC015
     FM301500 17007KT P6SM BKN015 OVC025
     FM302000 17010G18KT P6SM VCSH OVC025
      AMD NOT SKED=

USA.gov is the U.S. government's official web portal to all federal, state and local government web resources and services.